Alta, Iowa
Current Conditions -  °F | °C
As of 3:35 AM on Sunday 26 Oct 2014 (Local Time) from KSLB Reporting Station
Clear Clear  
Wind Chill:   Ceiling: Unl
Heat Index:   Visibility: 10mi
Dew Point:   Wind: 9mph
Humidity: 57%   Direction: 100°E
Pressure: 30.02"   Gusts: NA
Location:  42.67°N, 95.29°W
Report Text: KSLB 260835Z AUTO 10008KT 10SM CLR 08/00 A3002 RMK AO2
Loading
Personal Weather Stations






























Interactive Weather Map
Tropical Storm Tracking
New forecast layout! Learn more

10-Day Weather Forecast

Advertisements
Track Severe Weather on mobile